sensor_id;sensor_type;location;lat;lon;timestamp;pressure;altitude;pressure_sealevel;temperature;humidity
53514;BME280;39768;54.148;12.174;2022-10-31T00:01:26;101714.13;;;12.16;100.00
53514;BME280;39768;54.148;12.174;2022-10-31T00:05:49;101710.69;;;11.82;100.00
53514;BME280;39768;54.148;12.174;2022-10-31T00:10:10;101702.72;;;11.68;100.00
53514;BME280;39768;54.148;12.174;2022-10-31T00:14:32;101721.28;;;11.91;100.00
53514;BME280;39768;54.148;12.174;2022-10-31T00:18:56;101718.69;;;11.86;100.00
53514;BME280;39768;54.148;12.174;2022-10-31T00:23:18;101731.00;;;12.10;100.00
53514;BME280;39768;54.148;12.174;2022-10-31T00:27:39;101728.41;;;11.90;100.00
53514;BME280;39768;54.148;12.174;2022-10-31T00:32:01;101722.94;;;12.18;100.00
53514;BME280;39768;54.148;12.174;2022-10-31T00:36:22;101726.53;;;12.14;100.00
53514;BME280;39768;54.148;12.174;2022-10-31T00:40:44;101719.47;;;12.05;100.00
53514;BME280;39768;54.148;12.174;2022-10-31T00:45:05;101718.72;;;11.54;100.00
53514;BME280;39768;54.148;12.174;2022-10-31T00:49:27;101724.97;;;11.12;100.00
53514;BME280;39768;54.148;12.174;2022-10-31T00:53:49;101731.13;;;11.48;100.00
53514;BME280;39768;54.148;12.174;2022-10-31T00:58:11;101728.44;;;11.68;100.00
53514;BME280;39768;54.148;12.174;2022-10-31T01:02:38;101731.97;;;11.80;100.00
53514;BME280;39768;54.148;12.174;2022-10-31T01:07:01;101724.84;;;11.75;100.00
53514;BME280;39768;54.148;12.174;2022-10-31T01:11:23;101734.63;;;11.86;100.00
53514;BME280;39768;54.148;12.174;2022-10-31T01:15:44;101750.56;;;11.89;100.00
53514;BME280;39768;54.148;12.174;2022-10-31T01:20:07;101749.69;;;11.98;100.00
53514;BME280;39768;54.148;12.174;2022-10-31T01:24:29;101742.66;;;11.30;100.00
53514;BME280;39768;54.148;12.174;2022-10-31T01:28:54;101738.28;;;11.12;100.00
53514;BME280;39768;54.148;12.174;2022-10-31T01:33:16;101747.09;;;11.43;100.00
53514;BME280;39768;54.148;12.174;2022-10-31T01:37:37;101749.75;;;11.51;100.00
53514;BME280;39768;54.148;12.174;2022-10-31T01:41:59;101743.56;;;11.18;100.00
53514;BME280;39768;54.148;12.174;2022-10-31T01:46:24;101744.44;;;11.19;100.00
53514;BME280;39768;54.148;12.174;2022-10-31T01:50:48;101754.16;;;11.59;100.00
53514;BME280;39768;54.148;12.174;2022-10-31T01:55:21;101757.69;;;11.61;100.00
53514;BME280;39768;54.148;12.174;2022-10-31T01:59:54;101755.03;;;11.83;100.00
53514;BME280;39768;54.148;12.174;2022-10-31T02:04:17;101768.31;;;11.87;100.00
53514;BME280;39768;54.148;12.174;2022-10-31T02:08:42;101760.38;;;11.86;100.00
53514;BME280;39768;54.148;12.174;2022-10-31T02:13:07;101766.53;;;11.95;100.00
53514;BME280;39768;54.148;12.174;2022-10-31T02:17:36;101760.28;;;12.07;100.00
53514;BME280;39768;54.148;12.174;2022-10-31T02:22:05;101763.88;;;11.95;100.00
53514;BME280;39768;54.148;12.174;2022-10-31T02:26:43;101770.03;;;12.05;100.00
53514;BME280;39768;54.148;12.174;2022-10-31T02:35:40;101779.72;;;12.24;100.00
53514;BME280;39768;54.148;12.174;2022-10-31T02:48:26;101777.13;;;12.08;100.00
53514;BME280;39768;54.148;12.174;2022-10-31T02:52:30;101779.78;;;12.06;100.00
53514;BME280;39768;54.148;12.174;2022-10-31T02:56:36;101779.78;;;12.08;100.00
53514;BME280;39768;54.148;12.174;2022-10-31T03:00:43;101773.56;;;12.12;100.00
53514;BME280;39768;54.148;12.174;2022-10-31T03:13:46;101783.38;;;11.93;100.00
53514;BME280;39768;54.148;12.174;2022-10-31T03:18:00;101782.53;;;11.51;100.00
53514;BME280;39768;54.148;12.174;2022-10-31T03:22:13;101795.81;;;11.28;100.00
53514;BME280;39768;54.148;12.174;2022-10-31T03:26:19;101789.66;;;11.36;100.00
53514;BME280;39768;54.148;12.174;2022-10-31T03:30:22;101788.75;;;11.56;100.00
53514;BME280;39768;54.148;12.174;2022-10-31T03:34:31;101790.53;;;11.38;100.00
53514;BME280;39768;54.148;12.174;2022-10-31T03:38:35;101796.72;;;11.06;100.00
53514;BME280;39768;54.148;12.174;2022-10-31T03:42:40;101806.47;;;11.54;100.00
53514;BME280;39768;54.148;12.174;2022-10-31T03:46:43;101802.91;;;11.58;100.00
53514;BME280;39768;54.148;12.174;2022-10-31T03:51:12;101805.59;;;11.49;100.00
53514;BME280;39768;54.148;12.174;2022-10-31T03:55:20;101807.34;;;11.67;100.00
53514;BME280;39768;54.148;12.174;2022-10-31T03:59:37;101819.78;;;11.79;100.00
53514;BME280;39768;54.148;12.174;2022-10-31T04:03:42;101818.88;;;11.64;100.00
53514;BME280;39768;54.148;12.174;2022-10-31T04:07:47;101821.53;;;11.90;100.00
53514;BME280;39768;54.148;12.174;2022-10-31T04:11:54;101827.72;;;11.91;100.00
53514;BME280;39768;54.148;12.174;2022-10-31T04:16:11;101819.78;;;11.83;100.00
53514;BME280;39768;54.148;12.174;2022-10-31T04:20:18;101810.91;;;11.71;100.00
53514;BME280;39768;54.148;12.174;2022-10-31T04:24:19;101820.63;;;11.73;100.00
53514;BME280;39768;54.148;12.174;2022-10-31T04:28:22;101820.66;;;11.64;100.00
53514;BME280;39768;54.148;12.174;2022-10-31T04:32:25;101827.75;;;11.57;100.00
53514;BME280;39768;54.148;12.174;2022-10-31T04:36:28;101825.97;;;11.52;100.00
53514;BME280;39768;54.148;12.174;2022-10-31T04:40:31;101825.97;;;11.47;100.00
53514;BME280;39768;54.148;12.174;2022-10-31T04:44:51;101835.72;;;11.39;100.00
53514;BME280;39768;54.148;12.174;2022-10-31T04:48:53;101836.59;;;11.35;100.00
53514;BME280;39768;54.148;12.174;2022-10-31T04:52:54;101825.97;;;11.43;100.00
53514;BME280;39768;54.148;12.174;2022-10-31T04:57:00;101833.06;;;11.51;100.00
53514;BME280;39768;54.148;12.174;2022-10-31T05:01:02;101846.34;;;11.62;100.00
53514;BME280;39768;54.148;12.174;2022-10-31T05:05:05;101847.25;;;11.38;100.00
53514;BME280;39768;54.148;12.174;2022-10-31T05:09:09;101849.00;;;11.60;100.00
53514;BME280;39768;54.148;12.174;2022-10-31T05:13:12;101854.34;;;11.60;100.00
53514;BME280;39768;54.148;12.174;2022-10-31T05:17:32;101861.41;;;11.75;100.00
53514;BME280;39768;54.148;12.174;2022-10-31T05:22:08;101857.91;;;11.72;100.00
53514;BME280;39768;54.148;12.174;2022-10-31T05:26:11;101862.34;;;11.71;100.00
53514;BME280;39768;54.148;12.174;2022-10-31T05:30:16;101866.75;;;11.74;100.00
53514;BME280;39768;54.148;12.174;2022-10-31T05:34:17;101870.28;;;11.73;100.00
53514;BME280;39768;54.148;12.174;2022-10-31T05:38:19;101858.75;;;11.43;100.00
53514;BME280;39768;54.148;12.174;2022-10-31T05:42:21;101863.22;;;11.67;100.00
53514;BME280;39768;54.148;12.174;2022-10-31T05:46:23;101862.34;;;11.71;100.00
53514;BME280;39768;54.148;12.174;2022-10-31T05:51:00;101865.88;;;11.67;100.00
53514;BME280;39768;54.148;12.174;2022-10-31T05:55:02;101863.22;;;11.40;100.00
53514;BME280;39768;54.148;12.174;2022-10-31T05:59:04;101881.81;;;11.65;100.00
53514;BME280;39768;54.148;12.174;2022-10-31T06:03:07;101877.38;;;11.63;100.00
53514;BME280;39768;54.148;12.174;2022-10-31T06:07:18;101869.41;;;11.64;100.00
53514;BME280;39768;54.148;12.174;2022-10-31T06:11:20;101872.09;;;11.83;100.00
53514;BME280;39768;54.148;12.174;2022-10-31T06:15:36;101881.84;;;11.82;100.00
53514;BME280;39768;54.148;12.174;2022-10-31T06:19:41;101880.06;;;11.92;100.00
53514;BME280;39768;54.148;12.174;2022-10-31T06:23:44;101880.94;;;12.15;100.00
53514;BME280;39768;54.148;12.174;2022-10-31T06:28:04;101884.44;;;12.23;100.00
53514;BME280;39768;54.148;12.174;2022-10-31T06:32:45;101878.19;;;12.41;100.00
53514;BME280;39768;54.148;12.174;2022-10-31T06:37:08;101894.13;;;12.56;100.00
53514;BME280;39768;54.148;12.174;2022-10-31T06:41:32;101906.44;;;12.80;100.00
53514;BME280;39768;54.148;12.174;2022-10-31T06:45:53;101904.72;;;12.76;100.00
53514;BME280;39768;54.148;12.174;2022-10-31T06:50:19;101909.03;;;12.98;100.00
53514;BME280;39768;54.148;12.174;2022-10-31T06:54:40;101909.03;;;12.98;100.00
53514;BME280;39768;54.148;12.174;2022-10-31T06:59:02;101922.34;;;13.04;100.00
53514;BME280;39768;54.148;12.174;2022-10-31T07:03:42;101927.63;;;13.11;100.00
53514;BME280;39768;54.148;12.174;2022-10-31T07:08:07;101938.31;;;13.09;100.00
53514;BME280;39768;54.148;12.174;2022-10-31T07:12:30;101945.38;;;13.22;100.00
53514;BME280;39768;54.148;12.174;2022-10-31T07:16:52;101942.63;;;13.37;100.00
53514;BME280;39768;54.148;12.174;2022-10-31T07:21:20;101946.97;;;13.51;100.00
53514;BME280;39768;54.148;12.174;2022-10-31T07:25:41;101954.75;;;13.84;100.00
53514;BME280;39768;54.148;12.174;2022-10-31T07:30:11;101954.56;;;14.08;100.00
53514;BME280;39768;54.148;12.174;2022-10-31T07:34:32;101958.78;;;14.31;100.00
53514;BME280;39768;54.148;12.174;2022-10-31T07:38:57;101962.13;;;14.57;100.00
53514;BME280;39768;54.148;12.174;2022-10-31T07:43:00;101962.81;;;14.74;100.00
53514;BME280;39768;54.148;12.174;2022-10-31T07:47:22;101964.56;;;14.77;100.00
53514;BME280;39768;54.148;12.174;2022-10-31T07:51:55;101964.28;;;15.01;100.00
53514;BME280;39768;54.148;12.174;2022-10-31T07:56:15;101975.28;;;15.44;100.00
53514;BME280;39768;54.148;12.174;2022-10-31T08:00:17;101975.16;;;15.53;100.00
53514;BME280;39768;54.148;12.174;2022-10-31T08:04:22;101984.13;;;15.51;100.00
53514;BME280;39768;54.148;12.174;2022-10-31T08:08:42;101981.22;;;15.69;100.00
53514;BME280;39768;54.148;12.174;2022-10-31T08:12:44;101975.97;;;15.60;100.00
53514;BME280;39768;54.148;12.174;2022-10-31T08:16:46;101986.28;;;15.88;100.00
53514;BME280;39768;54.148;12.174;2022-10-31T08:20:48;101995.19;;;15.88;100.00
53514;BME280;39768;54.148;12.174;2022-10-31T08:24:49;102008.19;;;16.12;100.00
53514;BME280;39768;54.148;12.174;2022-10-31T08:28:51;102007.41;;;16.06;100.00
53514;BME280;39768;54.148;12.174;2022-10-31T08:33:15;102007.34;;;16.09;100.00
53514;BME280;39768;54.148;12.174;2022-10-31T08:37:57;102008.78;;;16.31;100.00
53514;BME280;39768;54.148;12.174;2022-10-31T08:42:00;102020.41;;;16.32;100.00
53514;BME280;39768;54.148;12.174;2022-10-31T08:46:02;102015.84;;;16.35;100.00
53514;BME280;39768;54.148;12.174;2022-10-31T08:50:04;102011.97;;;16.53;100.00
53514;BME280;39768;54.148;12.174;2022-10-31T08:54:06;102011.22;;;16.45;100.00
53514;BME280;39768;54.148;12.174;2022-10-31T08:58:13;102012.22;;;16.38;100.00
53514;BME280;39768;54.148;12.174;2022-10-31T09:02:21;102021.78;;;16.54;100.00
53514;BME280;39768;54.148;12.174;2022-10-31T09:06:24;102027.97;;;16.57;100.00
53514;BME280;39768;54.148;12.174;2022-10-31T09:10:28;102019.81;;;16.64;100.00
53514;BME280;39768;54.148;12.174;2022-10-31T09:14:30;102022.63;;;16.56;100.00
53514;BME280;39768;54.148;12.174;2022-10-31T09:18:52;102023.34;;;16.67;100.00
53514;BME280;39768;54.148;12.174;2022-10-31T09:22:58;102019.94;;;16.56;100.00
53514;BME280;39768;54.148;12.174;2022-10-31T09:27:00;102026.19;;;16.56;100.00
53514;BME280;39768;54.148;12.174;2022-10-31T09:31:02;102029.59;;;16.68;100.00
53514;BME280;39768;54.148;12.174;2022-10-31T09:35:22;102027.72;;;16.73;100.00
53514;BME280;39768;54.148;12.174;2022-10-31T09:39:28;102026.00;;;16.69;100.00
53514;BME280;39768;54.148;12.174;2022-10-31T09:43:56;102040.59;;;16.51;100.00
53514;BME280;39768;54.148;12.174;2022-10-31T09:48:32;102045.81;;;16.58;100.00
53514;BME280;39768;54.148;12.174;2022-10-31T09:53:09;102043.22;;;16.54;100.00
53514;BME280;39768;54.148;12.174;2022-10-31T09:57:14;102055.81;;;16.47;100.00
53514;BME280;39768;54.148;12.174;2022-10-31T10:06:18;102044.88;;;16.63;100.00
53514;BME280;39768;54.148;12.174;2022-10-31T10:10:51;102052.16;;;16.53;100.00
53514;BME280;39768;54.148;12.174;2022-10-31T10:15:34;102056.50;;;16.62;100.00
53514;BME280;39768;54.148;12.174;2022-10-31T10:20:09;102055.94;;;16.43;100.00
53514;BME280;39768;54.148;12.174;2022-10-31T10:28:53;102063.47;;;16.18;100.00
53514;BME280;39768;54.148;12.174;2022-10-31T10:33:10;102067.09;;;16.17;100.00
53514;BME280;39768;54.148;12.174;2022-10-31T10:37:27;102061.72;;;16.17;100.00
53514;BME280;39768;54.148;12.174;2022-10-31T10:41:32;102063.63;;;16.09;100.00
53514;BME280;39768;54.148;12.174;2022-10-31T10:45:37;102065.38;;;16.11;100.00
53514;BME280;39768;54.148;12.174;2022-10-31T10:49:57;102073.50;;;16.05;100.00
53514;BME280;39768;54.148;12.174;2022-10-31T10:58:15;102073.34;;;16.16;100.00
53514;BME280;39768;54.148;12.174;2022-10-31T11:02:24;102063.53;;;16.15;100.00
53514;BME280;39768;54.148;12.174;2022-10-31T11:06:26;102069.00;;;16.06;100.00
53514;BME280;39768;54.148;12.174;2022-10-31T11:10:28;102063.41;;;16.21;100.00
53514;BME280;39768;54.148;12.174;2022-10-31T11:14:29;102066.53;;;15.94;100.00
53514;BME280;39768;54.148;12.174;2022-10-31T11:18:34;102057.84;;;16.35;100.00
53514;BME280;39768;54.148;12.174;2022-10-31T11:22:35;102054.50;;;16.20;100.00
53514;BME280;39768;54.148;12.174;2022-10-31T11:26:38;102051.00;;;16.17;100.00
53514;BME280;39768;54.148;12.174;2022-10-31T11:30:46;102048.31;;;16.17;100.00
53514;BME280;39768;54.148;12.174;2022-10-31T11:34:54;102044.66;;;16.21;100.00
53514;BME280;39768;54.148;12.174;2022-10-31T11:38:58;102045.56;;;16.21;100.00
53514;BME280;39768;54.148;12.174;2022-10-31T11:43:01;102046.44;;;16.22;100.00
53514;BME280;39768;54.148;12.174;2022-10-31T11:47:04;102058.91;;;16.25;100.00
53514;BME280;39768;54.148;12.174;2022-10-31T11:51:06;102057.13;;;15.64;100.00
53514;BME280;39768;54.148;12.174;2022-10-31T11:55:16;102055.09;;;15.82;100.00
53514;BME280;39768;54.148;12.174;2022-10-31T11:59:29;102063.34;;;15.67;100.00
53514;BME280;39768;54.148;12.174;2022-10-31T12:07:34;102056.38;;;15.52;100.00
53514;BME280;39768;54.148;12.174;2022-10-31T12:11:46;102043.22;;;15.33;100.00
53514;BME280;39768;54.148;12.174;2022-10-31T12:15:57;102059.03;;;15.57;100.00
53514;BME280;39768;54.148;12.174;2022-10-31T12:24:32;102047.28;;;15.67;100.00
53514;BME280;39768;54.148;12.174;2022-10-31T12:33:19;102050.47;;;15.94;100.00
53514;BME280;39768;54.148;12.174;2022-10-31T12:41:46;102039.97;;;15.78;100.00
53514;BME280;39768;54.148;12.174;2022-10-31T12:45:52;102030.06;;;15.85;100.00
53514;BME280;39768;54.148;12.174;2022-10-31T12:58:33;102032.56;;;15.96;100.00
53514;BME280;39768;54.148;12.174;2022-10-31T13:06:47;102031.03;;;15.79;100.00
53514;BME280;39768;54.148;12.174;2022-10-31T13:11:10;102034.63;;;15.78;100.00
53514;BME280;39768;54.148;12.174;2022-10-31T13:15:18;102032.84;;;15.77;100.00
53514;BME280;39768;54.148;12.174;2022-10-31T13:19:35;102046.25;;;15.76;100.00
53514;BME280;39768;54.148;12.174;2022-10-31T13:23:39;102036.47;;;15.73;100.00
53514;BME280;39768;54.148;12.174;2022-10-31T13:28:03;102033.16;;;15.56;100.00
53514;BME280;39768;54.148;12.174;2022-10-31T13:32:06;102029.59;;;15.54;100.00
53514;BME280;39768;54.148;12.174;2022-10-31T13:36:21;102029.63;;;15.51;100.00
53514;BME280;39768;54.148;12.174;2022-10-31T13:40:42;102025.13;;;15.55;100.00
53514;BME280;39768;54.148;12.174;2022-10-31T13:44:46;102022.47;;;15.56;100.00
53514;BME280;39768;54.148;12.174;2022-10-31T13:48:47;102014.59;;;15.42;100.00
53514;BME280;39768;54.148;12.174;2022-10-31T13:52:49;102011.75;;;15.56;100.00
53514;BME280;39768;54.148;12.174;2022-10-31T13:56:51;102003.56;;;15.65;100.00
53514;BME280;39768;54.148;12.174;2022-10-31T14:01:13;101999.56;;;15.29;100.00
53514;BME280;39768;54.148;12.174;2022-10-31T14:05:25;102000.97;;;15.59;100.00
53514;BME280;39768;54.148;12.174;2022-10-31T14:09:31;101999.44;;;15.40;100.00
53514;BME280;39768;54.148;12.174;2022-10-31T14:13:41;102004.66;;;15.49;100.00
53514;BME280;39768;54.148;12.174;2022-10-31T14:18:05;102005.44;;;15.59;100.00
53514;BME280;39768;54.148;12.174;2022-10-31T14:22:20;102000.19;;;15.49;100.00
53514;BME280;39768;54.148;12.174;2022-10-31T14:30:26;101983.47;;;15.32;100.00
53514;BME280;39768;54.148;12.174;2022-10-31T14:34:31;101988.13;;;15.18;100.00
53514;BME280;39768;54.148;12.174;2022-10-31T14:39:00;101987.19;;;15.24;100.00
53514;BME280;39768;54.148;12.174;2022-10-31T14:43:13;101990.78;;;15.20;100.00
53514;BME280;39768;54.148;12.174;2022-10-31T14:47:41;101995.63;;;14.89;100.00
53514;BME280;39768;54.148;12.174;2022-10-31T14:51:47;101986.66;;;14.94;100.00
53514;BME280;39768;54.148;12.174;2022-10-31T14:55:52;101982.56;;;15.35;100.00
53514;BME280;39768;54.148;12.174;2022-10-31T15:00:17;101981.13;;;15.09;100.00
53514;BME280;39768;54.148;12.174;2022-10-31T15:04:22;101984.00;;;14.91;100.00
53514;BME280;39768;54.148;12.174;2022-10-31T15:08:37;101976.69;;;15.08;100.00
53514;BME280;39768;54.148;12.174;2022-10-31T15:12:39;101977.72;;;14.98;100.00
53514;BME280;39768;54.148;12.174;2022-10-31T15:16:42;101976.75;;;15.02;100.00
53514;BME280;39768;54.148;12.174;2022-10-31T15:20:45;101972.09;;;15.16;100.00
53514;BME280;39768;54.148;12.174;2022-10-31T15:24:48;101972.91;;;15.25;100.00
53514;BME280;39768;54.148;12.174;2022-10-31T15:29:11;101980.03;;;15.26;100.00
53514;BME280;39768;54.148;12.174;2022-10-31T15:33:20;101980.97;;;15.22;100.00
53514;BME280;39768;54.148;12.174;2022-10-31T15:37:24;101975.47;;;15.31;100.00
53514;BME280;39768;54.148;12.174;2022-10-31T15:45:31;101974.25;;;14.86;100.00
53514;BME280;39768;54.148;12.174;2022-10-31T15:49:41;101978.53;;;15.02;100.00
53514;BME280;39768;54.148;12.174;2022-10-31T15:53:48;101974.94;;;15.03;100.00
53514;BME280;39768;54.148;12.174;2022-10-31T15:57:53;101973.19;;;15.02;100.00
53514;BME280;39768;54.148;12.174;2022-10-31T16:02:00;101966.06;;;14.99;100.00
53514;BME280;39768;54.148;12.174;2022-10-31T16:06:04;101974.84;;;15.12;100.00
53514;BME280;39768;54.148;12.174;2022-10-31T16:10:22;101972.09;;;15.18;100.00
53514;BME280;39768;54.148;12.174;2022-10-31T16:14:30;101976.47;;;15.24;100.00
53514;BME280;39768;54.148;12.174;2022-10-31T16:18:36;101971.00;;;14.58;100.00
53514;BME280;39768;54.148;12.174;2022-10-31T16:22:38;101965.44;;;14.79;100.00
53514;BME280;39768;54.148;12.174;2022-10-31T16:26:40;101962.16;;;14.54;100.00
53514;BME280;39768;54.148;12.174;2022-10-31T16:30:44;101960.47;;;14.39;100.00
53514;BME280;39768;54.148;12.174;2022-10-31T16:39:11;101955.09;;;14.47;100.00
53514;BME280;39768;54.148;12.174;2022-10-31T16:43:14;101954.53;;;14.97;100.00
53514;BME280;39768;54.148;12.174;2022-10-31T16:47:18;101957.84;;;15.16;100.00
53514;BME280;39768;54.148;12.174;2022-10-31T16:51:23;101959.78;;;15.03;100.00
53514;BME280;39768;54.148;12.174;2022-10-31T16:55:25;101947.13;;;14.39;100.00
53514;BME280;39768;54.148;12.174;2022-10-31T16:59:26;101946.88;;;14.67;100.00
53514;BME280;39768;54.148;12.174;2022-10-31T17:03:28;101953.56;;;15.03;100.00
53514;BME280;39768;54.148;12.174;2022-10-31T17:07:29;101952.84;;;14.89;100.00
53514;BME280;39768;54.148;12.174;2022-10-31T17:11:31;101946.59;;;14.88;100.00
53514;BME280;39768;54.148;12.174;2022-10-31T17:15:41;101932.91;;;14.40;100.00
53514;BME280;39768;54.148;12.174;2022-10-31T17:19:44;101933.84;;;14.33;100.00
53514;BME280;39768;54.148;12.174;2022-10-31T17:23:46;101934.69;;;14.38;100.00
53514;BME280;39768;54.148;12.174;2022-10-31T17:27:48;101942.38;;;14.70;100.00
53514;BME280;39768;54.148;12.174;2022-10-31T17:31:50;101947.44;;;14.93;100.00
53514;BME280;39768;54.148;12.174;2022-10-31T17:35:51;101954.56;;;14.94;100.00
53514;BME280;39768;54.148;12.174;2022-10-31T17:39:53;101938.19;;;14.46;100.00
53514;BME280;39768;54.148;12.174;2022-10-31T17:43:55;101929.06;;;14.66;100.00
53514;BME280;39768;54.148;12.174;2022-10-31T17:47:57;101924.31;;;14.91;100.00
53514;BME280;39768;54.148;12.174;2022-10-31T17:51:59;101927.44;;;14.54;100.00
53514;BME280;39768;54.148;12.174;2022-10-31T17:56:04;101915.97;;;14.41;100.00
53514;BME280;39768;54.148;12.174;2022-10-31T18:00:08;101903.53;;;14.37;100.00
53514;BME280;39768;54.148;12.174;2022-10-31T18:04:11;101907.16;;;14.30;100.00
53514;BME280;39768;54.148;12.174;2022-10-31T18:08:13;101901.56;;;14.55;100.00
53514;BME280;39768;54.148;12.174;2022-10-31T18:12:15;101897.31;;;14.37;100.00
53514;BME280;39768;54.148;12.174;2022-10-31T18:16:16;101888.59;;;14.17;100.00
53514;BME280;39768;54.148;12.174;2022-10-31T18:20:19;101889.50;;;14.17;100.00
53514;BME280;39768;54.148;12.174;2022-10-31T18:24:20;101888.44;;;14.33;100.00
53514;BME280;39768;54.148;12.174;2022-10-31T18:28:22;101888.44;;;14.33;100.00
53514;BME280;39768;54.148;12.174;2022-10-31T18:32:24;101884.00;;;14.29;100.00
53514;BME280;39768;54.148;12.174;2022-10-31T18:36:25;101882.50;;;14.04;100.00
53514;BME280;39768;54.148;12.174;2022-10-31T18:40:27;101884.44;;;14.72;100.00
53514;BME280;39768;54.148;12.174;2022-10-31T18:44:28;101877.88;;;14.98;100.00
53514;BME280;39768;54.148;12.174;2022-10-31T18:48:30;101867.63;;;14.63;100.00
53514;BME280;39768;54.148;12.174;2022-10-31T18:52:32;101867.50;;;14.73;100.00
53514;BME280;39768;54.148;12.174;2022-10-31T18:56:33;101868.66;;;14.53;100.00
53514;BME280;39768;54.148;12.174;2022-10-31T19:00:36;101857.88;;;14.57;100.00
53514;BME280;39768;54.148;12.174;2022-10-31T19:04:37;101856.78;;;14.75;100.00
53514;BME280;39768;54.148;12.174;2022-10-31T19:08:39;101858.03;;;14.48;100.00
53514;BME280;39768;54.148;12.174;2022-10-31T19:12:40;101843.03;;;14.32;100.00
53514;BME280;39768;54.148;12.174;2022-10-31T19:16:42;101844.66;;;14.48;100.00
53514;BME280;39768;54.148;12.174;2022-10-31T19:20:43;101842.88;;;14.47;100.00
53514;BME280;39768;54.148;12.174;2022-10-31T19:24:44;101839.19;;;14.57;100.00
53514;BME280;39768;54.148;12.174;2022-10-31T19:28:46;101834.47;;;14.79;100.00
53514;BME280;39768;54.148;12.174;2022-10-31T19:32:47;101822.06;;;14.72;100.00
53514;BME280;39768;54.148;12.174;2022-10-31T19:36:49;101834.44;;;14.80;100.00
53514;BME280;39768;54.148;12.174;2022-10-31T19:41:05;101843.41;;;14.76;100.00
53514;BME280;39768;54.148;12.174;2022-10-31T19:45:07;101851.88;;;15.07;100.00
53514;BME280;39768;54.148;12.174;2022-10-31T19:49:10;101845.00;;;14.88;100.00
53514;BME280;39768;54.148;12.174;2022-10-31T19:53:12;101838.88;;;14.83;100.00
53514;BME280;39768;54.148;12.174;2022-10-31T19:57:13;101830.47;;;15.09;100.00
53514;BME280;39768;54.148;12.174;2022-10-31T20:01:16;101842.03;;;15.11;100.00
53514;BME280;39768;54.148;12.174;2022-10-31T20:05:18;101841.81;;;15.25;100.00
53514;BME280;39768;54.148;12.174;2022-10-31T20:09:20;101836.44;;;15.26;100.00
53514;BME280;39768;54.148;12.174;2022-10-31T20:13:23;101833.88;;;15.18;100.00
53514;BME280;39768;54.148;12.174;2022-10-31T20:17:24;101830.31;;;15.16;100.00
53514;BME280;39768;54.148;12.174;2022-10-31T20:21:28;101818.38;;;14.82;100.00
53514;BME280;39768;54.148;12.174;2022-10-31T20:25:29;101824.44;;;14.95;100.00
53514;BME280;39768;54.148;12.174;2022-10-31T20:29:33;101845.41;;;15.22;100.00
53514;BME280;39768;54.148;12.174;2022-10-31T20:33:35;101837.69;;;15.02;100.00
53514;BME280;39768;54.148;12.174;2022-10-31T20:37:37;101824.44;;;14.95;100.00
53514;BME280;39768;54.148;12.174;2022-10-31T20:41:38;101800.69;;;14.72;100.00
53514;BME280;39768;54.148;12.174;2022-10-31T20:45:40;101796.34;;;14.65;100.00
53514;BME280;39768;54.148;12.174;2022-10-31T20:49:41;101786.63;;;14.58;100.00
53514;BME280;39768;54.148;12.174;2022-10-31T20:53:43;101784.59;;;14.75;100.00
53514;BME280;39768;54.148;12.174;2022-10-31T20:57:45;101780.72;;;14.97;100.00
53514;BME280;39768;54.148;12.174;2022-10-31T21:01:47;101777.16;;;14.97;100.00
53514;BME280;39768;54.148;12.174;2022-10-31T21:05:53;101768.66;;;15.27;100.00
53514;BME280;39768;54.148;12.174;2022-10-31T21:09:55;101767.56;;;15.39;100.00
53514;BME280;39768;54.148;12.174;2022-10-31T21:13:57;101757.84;;;15.32;100.00
53514;BME280;39768;54.148;12.174;2022-10-31T21:17:59;101753.25;;;15.41;100.00
53514;BME280;39768;54.148;12.174;2022-10-31T21:22:02;101745.38;;;15.31;100.00
53514;BME280;39768;54.148;12.174;2022-10-31T21:26:10;101736.41;;;15.35;100.00
53514;BME280;39768;54.148;12.174;2022-10-31T21:30:12;101721.78;;;15.54;100.00
53514;BME280;39768;54.148;12.174;2022-10-31T21:34:14;101708.41;;;15.54;100.00
53514;BME280;39768;54.148;12.174;2022-10-31T21:38:15;101718.66;;;15.78;100.00
53514;BME280;39768;54.148;12.174;2022-10-31T21:42:16;101707.03;;;15.79;100.00
53514;BME280;39768;54.148;12.174;2022-10-31T21:46:24;101707.28;;;15.69;100.00
53514;BME280;39768;54.148;12.174;2022-10-31T21:50:26;101700.75;;;15.82;100.00
53514;BME280;39768;54.148;12.174;2022-10-31T21:54:28;101691.22;;;15.67;100.00
53514;BME280;39768;54.148;12.174;2022-10-31T21:58:30;101689.09;;;15.84;100.00
53514;BME280;39768;54.148;12.174;2022-10-31T22:02:37;101695.44;;;15.80;100.00
53514;BME280;39768;54.148;12.174;2022-10-31T22:06:39;101692.66;;;15.85;100.00
53514;BME280;39768;54.148;12.174;2022-10-31T22:10:40;101672.19;;;15.82;100.00
53514;BME280;39768;54.148;12.174;2022-10-31T22:14:42;101657.88;;;15.83;100.00
53514;BME280;39768;54.148;12.174;2022-10-31T22:18:53;101652.00;;;15.66;100.00
53514;BME280;39768;54.148;12.174;2022-10-31T22:22:54;101633.88;;;15.79;100.00
53514;BME280;39768;54.148;12.174;2022-10-31T22:26:56;101633.22;;;15.68;100.00
53514;BME280;39768;54.148;12.174;2022-10-31T22:30:57;101626.59;;;15.85;100.00